Darrington, WA (98241)

10:26 AM PDT on September 02, 2015 (GMT -0700)
Glacier View Internet | | Change Station
CLOSE
Current Station
Personal Weather Station
Location: Darrington, WA
Elevation: 549 ft
Nearby Weather Stations

Elev 549 ft 48.25 °N, 121.61 °W | Updated 11 minutes ago

Overcast
Overcast
52.6 °F
Feels Like 52.6 °F
N
0.0
Wind Variable Wind from South
Gusts 2.0 mph

Today
High -- | Low -- °F
--% Chance of Precip.
Yesterday
High -- | Low -- °F
Precip. -- in
6:25 AM 7:45 PM
Waning Gibbous, 78% visible
Pressure 29.91 in
Visibility 10.0 miles
Clouds Few 1400 ft
Overcast 5000 ft
Dew Point 52 °F
Humidity 97%
Rainfall 0.49 in
Snow Depth Not available.
UV 1 out of 12
Pollen .50 out of 12
Air Quality Not available.
Flu Activity Not available.
METAR KAWO 021715Z 17004KT 10SM FEW014 OVC050 15/09 A2991 RMK AO1
Pressure 29.91 in
Visibility 10.0 miles
Clouds Few 1400 ft
Overcast 5000 ft
Dew Point 52 °F
Humidity 97%
Rainfall 0.49 in
Snow Depth Not available.
UV 1 out of 12
Pollen .50 out of 12
Air Quality Not available.
Flu Activity Not available.
METAR KAWO 021715Z 17004KT 10SM FEW014 OVC050 15/09 A2991 RMK AO1

10-Day Weather Forecast

×

Almanac

Astronomy

Sep. 02, 2015 Rise Set
Actual Time
Civil Twilight
Nautical Twilight
Astronomical Twilight
Moon
Length of Visible Light
Length of Day
Tomorrow will be .
, % of the Moon is Illuminated

Today's Extremes

State Highs State Lows

Community

WunderPhotos

Upload Photos

1,851,785 photos uploaded!

WunderBlogs® & News

Nearby

Air Quality

  Air Quality AQ Index Pollutant
Not available.

Snow Depth

Station Depth Elevation

Earthquake Activity

City Distance Mag. Time & Date
Minimum magnitude displayed is 2.5.

Coastal Water Temperatures

Place Temperature

Stations

Nearby Weather Stations

Station Location Temp. Windchill Dew Point Humidity Wind Precip. Elev Updated Type